createdAt,value
2023-02-28T00:01:24.149Z,2.36
2023-02-28T00:03:51.357Z,2.36
2023-02-28T00:06:18.597Z,2.38
2023-02-28T00:08:45.981Z,2.40
2023-02-28T00:11:14.704Z,2.40
2023-02-28T00:13:43.648Z,2.38
2023-02-28T00:16:19.506Z,2.41
2023-02-28T00:18:48.302Z,2.43
2023-02-28T00:21:16.783Z,2.39
2023-02-28T00:23:44.714Z,2.28
2023-02-28T00:26:12.113Z,2.31
2023-02-28T00:28:39.247Z,2.34
2023-02-28T00:31:06.496Z,2.38
2023-02-28T00:33:33.833Z,2.38
2023-02-28T00:36:09.178Z,2.38
2023-02-28T00:38:36.802Z,2.39
2023-02-28T00:41:07.192Z,2.33
2023-02-28T00:43:35.304Z,2.32
2023-02-28T00:46:03.185Z,2.37
2023-02-28T00:48:30.541Z,2.38
2023-02-28T00:50:57.673Z,2.38
2023-02-28T00:53:26.189Z,2.41
2023-02-28T00:55:53.337Z,2.43
2023-02-28T00:58:20.504Z,2.44
2023-02-28T01:00:49.839Z,2.43
2023-02-28T01:03:18.395Z,2.44
2023-02-28T01:05:45.773Z,2.41
2023-02-28T01:08:14.612Z,2.41
2023-02-28T01:10:42.363Z,2.39
2023-02-28T01:13:09.448Z,2.37
2023-02-28T01:15:36.555Z,2.38
2023-02-28T01:18:03.753Z,2.39
2023-02-28T01:20:30.998Z,2.35
2023-02-28T01:22:58.676Z,2.28
2023-02-28T01:25:25.859Z,2.29
2023-02-28T01:27:53.111Z,2.31
2023-02-28T01:30:20.683Z,2.28
2023-02-28T01:32:47.854Z,2.26
2023-02-28T01:35:14.996Z,2.27
2023-02-28T01:37:42.115Z,2.31
2023-02-28T01:40:11.102Z,2.30
2023-02-28T01:42:38.249Z,2.27
2023-02-28T01:45:18.944Z,2.24
2023-02-28T01:47:47.309Z,2.22
2023-02-28T01:50:18.015Z,2.18
2023-02-28T01:52:46.885Z,2.15
2023-02-28T01:55:14.404Z,2.12
2023-02-28T01:57:50.293Z,2.11
2023-02-28T02:00:20.867Z,2.10
2023-02-28T02:02:50.639Z,2.05
2023-02-28T02:05:23.695Z,2.00
2023-02-28T02:07:55.894Z,2.00
2023-02-28T02:10:26.233Z,1.98
2023-02-28T02:13:14.074Z,1.96
2023-02-28T02:16:02.694Z,1.95
2023-02-28T02:18:44.918Z,1.94
2023-02-28T02:21:28.891Z,1.91
2023-02-28T02:24:22.047Z,1.90
2023-02-28T02:26:56.734Z,1.88
2023-02-28T02:29:52.399Z,1.86
2023-02-28T02:32:36.869Z,1.80
2023-02-28T02:35:23.479Z,1.75
2023-02-28T02:38:33.379Z,1.69
2023-02-28T02:41:09.513Z,1.65
2023-02-28T02:43:37.782Z,1.63
2023-02-28T02:46:13.374Z,1.62
2023-02-28T02:48:41.695Z,1.58
2023-02-28T02:51:14.905Z,1.56
2023-02-28T02:53:53.643Z,1.53
2023-02-28T02:56:22.422Z,1.51
2023-02-28T02:58:51.311Z,1.46
2023-02-28T03:01:28.730Z,1.43
2023-02-28T03:04:02.651Z,1.42
2023-02-28T03:06:29.836Z,1.39
2023-02-28T03:08:57.087Z,1.32
2023-02-28T03:11:24.337Z,1.26
2023-02-28T03:14:10.930Z,1.25
2023-02-28T03:16:43.791Z,1.25
2023-02-28T03:19:32.289Z,1.25
2023-02-28T03:22:14.556Z,1.25
2023-02-28T03:25:32.447Z,1.24
2023-02-28T03:28:18.261Z,1.21
2023-02-28T03:30:54.750Z,1.20
2023-02-28T03:33:30.639Z,1.18
2023-02-28T03:36:02.096Z,1.16
2023-02-28T03:38:42.387Z,1.14
2023-02-28T03:41:24.487Z,1.10
2023-02-28T03:43:56.580Z,1.08
2023-02-28T03:46:27.642Z,1.04
2023-02-28T03:49:08.337Z,1.04
2023-02-28T03:51:37.156Z,1.03
2023-02-28T03:54:09.206Z,1.03
2023-02-28T03:56:44.384Z,1.04
2023-02-28T03:59:23.886Z,1.01
2023-02-28T04:01:51.364Z,0.99
2023-02-28T04:04:19.112Z,0.95
2023-02-28T04:06:46.507Z,0.92
2023-02-28T04:09:14.933Z,0.87
2023-02-28T04:11:54.201Z,0.84
2023-02-28T04:14:21.358Z,0.80
2023-02-28T04:16:48.510Z,0.80
2023-02-28T04:19:16.059Z,0.75
2023-02-28T04:21:45.605Z,0.71
2023-02-28T04:24:17.821Z,0.69
2023-02-28T04:26:46.934Z,0.69
2023-02-28T04:29:20.301Z,0.71
2023-02-28T04:31:47.643Z,0.69
2023-02-28T04:34:14.808Z,0.67
2023-02-28T04:36:41.990Z,0.65
2023-02-28T04:39:10.878Z,0.64
2023-02-28T04:41:38.501Z,0.63
2023-02-28T04:44:05.580Z,0.60
2023-02-28T04:46:32.739Z,0.59
2023-02-28T04:48:59.985Z,0.57
2023-02-28T04:51:28.077Z,0.56
2023-02-28T04:53:56.000Z,0.53
2023-02-28T04:56:23.092Z,0.50
2023-02-28T04:58:51.667Z,0.49
2023-02-28T05:01:30.518Z,0.46
2023-02-28T05:03:59.851Z,0.41
2023-02-28T05:06:29.262Z,0.37
2023-02-28T05:08:57.428Z,0.37
2023-02-28T05:11:26.908Z,0.36
2023-02-28T05:13:55.016Z,0.36
2023-02-28T05:16:22.581Z,0.33
2023-02-28T05:18:49.802Z,0.32
2023-02-28T05:21:26.808Z,0.33
2023-02-28T05:23:54.574Z,0.33
2023-02-28T05:26:22.050Z,0.32
2023-02-28T05:28:49.781Z,0.29
2023-02-28T05:31:17.263Z,0.26
2023-02-28T05:33:44.482Z,0.22
2023-02-28T05:36:11.763Z,0.20
2023-02-28T05:38:39.081Z,0.20
2023-02-28T05:41:10.182Z,0.19
2023-02-28T05:43:38.450Z,0.17
2023-02-28T05:46:10.603Z,0.17
2023-02-28T05:48:38.883Z,0.16
2023-02-28T05:51:06.844Z,0.14
2023-02-28T05:53:34.216Z,0.11
2023-02-28T05:56:02.071Z,0.10
2023-02-28T05:58:31.770Z,0.08
2023-02-28T06:01:19.918Z,0.07
2023-02-28T06:03:47.076Z,0.05
2023-02-28T06:06:14.283Z,0.03
2023-02-28T06:08:41.437Z,0.01
2023-02-28T06:11:08.570Z,0.01
2023-02-28T06:13:35.800Z,-0.01
2023-02-28T06:16:03.023Z,-0.01
2023-02-28T06:18:30.352Z,-0.03
2023-02-28T06:20:57.496Z,-0.07
2023-02-28T06:23:24.671Z,-0.07
2023-02-28T06:25:51.804Z,-0.08
2023-02-28T06:28:19.002Z,-0.08
2023-02-28T06:30:47.075Z,-0.07
2023-02-28T06:33:14.247Z,-0.05
2023-02-28T06:35:45.032Z,-0.03
2023-02-28T06:38:12.131Z,-0.01
2023-02-28T06:40:39.268Z,0.02
2023-02-28T06:43:06.442Z,0.03
2023-02-28T06:45:33.658Z,0.05
2023-02-28T06:48:02.120Z,0.07
2023-02-28T06:50:30.567Z,0.09
2023-02-28T06:52:57.712Z,0.10
2023-02-28T06:55:24.844Z,0.12
2023-02-28T06:57:51.969Z,0.14
2023-02-28T07:00:19.310Z,0.17
2023-02-28T07:02:46.702Z,0.18
2023-02-28T07:05:14.259Z,0.22
2023-02-28T07:07:44.586Z,0.24
2023-02-28T07:10:12.443Z,0.30
2023-02-28T07:12:40.318Z,0.33
2023-02-28T07:15:08.034Z,0.36
2023-02-28T07:17:35.134Z,0.38
2023-02-28T07:20:02.426Z,0.40
2023-02-28T07:22:29.677Z,0.44
2023-02-28T07:24:56.836Z,0.47
2023-02-28T07:27:26.597Z,0.50
2023-02-28T07:29:54.471Z,0.52
2023-02-28T07:32:21.641Z,0.58
2023-02-28T07:34:49.439Z,0.61
2023-02-28T07:37:16.599Z,0.66
2023-02-28T07:39:43.835Z,0.70
2023-02-28T07:42:12.837Z,0.74
2023-02-28T07:44:41.492Z,0.78
2023-02-28T07:47:09.950Z,0.85
2023-02-28T07:49:37.776Z,0.88
2023-02-28T07:52:05.886Z,0.93
2023-02-28T07:54:33.606Z,0.99
2023-02-28T07:57:00.771Z,1.03
2023-02-28T07:59:28.105Z,1.08
2023-02-28T08:01:58.394Z,1.15
2023-02-28T08:04:25.949Z,1.20
2023-02-28T08:06:53.980Z,1.24
2023-02-28T08:09:21.495Z,1.27
2023-02-28T08:11:48.625Z,1.34
2023-02-28T08:14:15.723Z,1.38
2023-02-28T08:16:43.914Z,1.43
2023-02-28T08:19:11.051Z,1.47
2023-02-28T08:21:38.188Z,1.54
2023-02-28T08:24:05.653Z,1.58
2023-02-28T08:26:32.917Z,1.64
2023-02-28T08:29:01.487Z,1.69
2023-02-28T08:31:29.278Z,1.72
2023-02-28T08:33:59.681Z,1.77
2023-02-28T08:36:29.729Z,1.82
2023-02-28T08:38:57.877Z,1.88
2023-02-28T08:41:24.940Z,1.94
2023-02-28T08:43:52.045Z,1.99
2023-02-28T08:46:19.205Z,2.06
2023-02-28T08:48:46.846Z,2.10
2023-02-28T08:51:19.371Z,2.19
2023-02-28T08:53:46.944Z,2.26
2023-02-28T08:56:17.487Z,2.31
2023-02-28T08:58:44.995Z,2.37
2023-02-28T09:01:15.090Z,2.42
2023-02-28T09:03:43.053Z,2.50
2023-02-28T09:06:11.028Z,2.57
2023-02-28T09:08:38.234Z,2.61
2023-02-28T09:11:05.761Z,2.67
2023-02-28T09:13:33.615Z,2.71
2023-02-28T09:16:02.077Z,2.77
2023-02-28T09:18:29.689Z,2.83
2023-02-28T09:20:56.834Z,2.91
2023-02-28T09:23:24.654Z,2.96
2023-02-28T09:25:55.932Z,3.00
2023-02-28T09:28:23.656Z,3.07
2023-02-28T09:30:52.692Z,3.08
2023-02-28T09:33:23.985Z,3.14
2023-02-28T09:35:51.979Z,3.21
2023-02-28T09:38:19.145Z,3.23
2023-02-28T09:40:54.825Z,3.28
2023-02-28T09:43:25.234Z,3.35
2023-02-28T09:46:03.900Z,3.39
2023-02-28T09:48:38.477Z,3.46
2023-02-28T09:51:17.232Z,3.53
2023-02-28T09:53:47.945Z,3.58
2023-02-28T09:56:27.000Z,3.64
2023-02-28T09:59:03.838Z,3.71
2023-02-28T10:01:53.080Z,3.83
2023-02-28T10:04:39.087Z,3.88
2023-02-28T10:07:19.279Z,3.96
2023-02-28T10:09:48.317Z,3.97
2023-02-28T10:12:17.553Z,4.03
2023-02-28T10:14:47.813Z,4.10
2023-02-28T10:17:20.876Z,4.13
2023-02-28T10:20:02.200Z,4.22
2023-02-28T10:23:08.341Z,4.29
2023-02-28T10:25:37.934Z,4.36
2023-02-28T10:28:11.048Z,4.43
2023-02-28T10:30:49.934Z,4.45
2023-02-28T10:33:24.271Z,4.48
2023-02-28T10:35:52.634Z,4.46
2023-02-28T10:38:28.735Z,4.54
2023-02-28T10:41:10.620Z,4.64
2023-02-28T10:43:40.283Z,4.77
2023-02-28T10:46:14.984Z,4.89
2023-02-28T10:48:50.132Z,5.01
2023-02-28T10:51:19.609Z,5.07
2023-02-28T10:54:03.090Z,5.22
2023-02-28T10:56:31.540Z,5.33
2023-02-28T10:59:03.857Z,5.27
2023-02-28T11:01:31.397Z,5.24
2023-02-28T11:03:58.797Z,5.37
2023-02-28T11:06:34.233Z,5.51
2023-02-28T11:09:05.454Z,5.60
2023-02-28T11:11:43.490Z,5.74
2023-02-28T11:14:20.108Z,5.85
2023-02-28T11:16:47.321Z,6.02
2023-02-28T11:19:23.979Z,6.17
2023-02-28T11:22:00.280Z,6.32
2023-02-28T11:24:30.980Z,6.38
2023-02-28T11:26:58.169Z,6.62
2023-02-28T11:29:30.361Z,6.71
2023-02-28T11:32:12.450Z,6.77
2023-02-28T11:34:41.316Z,6.76
2023-02-28T11:37:20.163Z,6.91
2023-02-28T11:39:47.574Z,6.95
2023-02-28T11:42:36.551Z,7.02
2023-02-28T11:45:08.441Z,7.10
2023-02-28T11:47:56.951Z,7.30
2023-02-28T11:50:55.381Z,7.63
2023-02-28T11:53:45.137Z,7.95
2023-02-28T11:56:33.493Z,8.35
2023-02-28T11:59:03.462Z,8.71
2023-02-28T12:02:17.949Z,9.20
2023-02-28T12:05:18.990Z,9.84
2023-02-28T12:08:04.081Z,11.01
2023-02-28T12:10:38.470Z,11.90
2023-02-28T12:13:28.052Z,12.80
2023-02-28T12:15:55.167Z,13.16
2023-02-28T12:18:44.722Z,13.69
2023-02-28T12:21:19.536Z,14.02
2023-02-28T12:24:07.216Z,14.23
2023-02-28T12:26:41.156Z,14.41
2023-02-28T12:29:32.039Z,14.30
2023-02-28T12:32:14.476Z,14.50
2023-02-28T12:34:50.944Z,15.03
2023-02-28T12:37:23.715Z,15.16
2023-02-28T12:39:55.213Z,15.16
2023-02-28T12:42:29.746Z,15.24
2023-02-28T12:45:13.747Z,15.23
2023-02-28T12:47:43.434Z,15.22
2023-02-28T12:50:12.744Z,15.60
2023-02-28T12:53:06.628Z,15.87
2023-02-28T12:55:44.150Z,15.98
2023-02-28T12:58:15.896Z,16.18
2023-02-28T13:00:57.250Z,16.28
2023-02-28T13:03:24.247Z,16.52
2023-02-28T13:06:15.738Z,16.55
2023-02-28T13:08:54.933Z,16.80
2023-02-28T13:11:25.988Z,17.03
2023-02-28T13:14:05.045Z,17.10
2023-02-28T13:16:54.559Z,17.84
2023-02-28T13:19:24.192Z,18.29
2023-02-28T13:21:52.602Z,18.13
2023-02-28T13:24:35.031Z,18.51
2023-02-28T13:27:02.226Z,18.41
2023-02-28T13:29:45.405Z,18.35
2023-02-28T13:32:12.525Z,17.30
2023-02-28T13:35:08.296Z,17.11
2023-02-28T13:37:39.114Z,17.49
2023-02-28T13:40:28.017Z,18.30
2023-02-28T13:42:55.200Z,18.72
2023-02-28T13:45:25.483Z,18.52
2023-02-28T13:47:53.927Z,18.01
2023-02-28T13:50:27.027Z,17.34
2023-02-28T13:53:12.169Z,17.21
2023-02-28T13:55:39.227Z,17.28
2023-02-28T13:58:23.528Z,17.39
2023-02-28T14:01:09.650Z,17.51
2023-02-28T14:04:33.851Z,17.40
2023-02-28T14:07:01.946Z,17.19
2023-02-28T14:09:30.408Z,17.83
2023-02-28T14:11:58.025Z,18.64
2023-02-28T14:14:37.097Z,19.53
2023-02-28T14:17:08.842Z,19.75
2023-02-28T14:19:38.347Z,20.53
2023-02-28T14:22:37.673Z,20.76
2023-02-28T14:25:19.712Z,21.11
2023-02-28T14:28:25.269Z,21.19
2023-02-28T14:30:59.575Z,21.78
2023-02-28T14:33:30.588Z,22.34
2023-02-28T14:36:22.953Z,22.54
2023-02-28T14:39:02.515Z,22.31
2023-02-28T14:41:32.705Z,21.68
2023-02-28T14:44:02.268Z,21.08
2023-02-28T14:46:40.939Z,20.38
2023-02-28T14:49:33.309Z,20.00
2023-02-28T14:52:13.980Z,19.27
2023-02-28T14:54:41.787Z,18.85
2023-02-28T14:57:23.804Z,18.52
2023-02-28T15:00:12.544Z,18.20
2023-02-28T15:02:41.146Z,17.81
2023-02-28T15:05:10.940Z,17.53
2023-02-28T15:07:38.301Z,16.93
2023-02-28T15:10:14.342Z,16.60
2023-02-28T15:12:42.383Z,16.26
2023-02-28T15:15:17.680Z,15.76
2023-02-28T15:17:49.288Z,15.60
2023-02-28T15:20:17.391Z,15.34
2023-02-28T15:22:46.367Z,15.24
2023-02-28T15:25:16.487Z,15.13
2023-02-28T15:27:50.637Z,15.10
2023-02-28T15:30:21.632Z,14.98
2023-02-28T15:33:05.604Z,14.91
2023-02-28T15:35:33.845Z,14.91
2023-02-28T15:38:19.921Z,14.66
2023-02-28T15:40:55.936Z,14.53
2023-02-28T15:43:32.760Z,14.25
2023-02-28T15:46:05.572Z,13.74
2023-02-28T15:48:35.080Z,13.64
2023-02-28T15:51:13.079Z,13.34
2023-02-28T15:53:50.695Z,13.30
2023-02-28T15:56:27.282Z,12.89
2023-02-28T15:59:00.355Z,12.83
2023-02-28T16:01:33.287Z,12.76
2023-02-28T16:04:06.655Z,12.68
2023-02-28T16:06:40.560Z,12.67
2023-02-28T16:09:10.837Z,12.48
2023-02-28T16:11:42.080Z,12.24
2023-02-28T16:14:21.556Z,12.02
2023-02-28T16:16:54.665Z,11.78
2023-02-28T16:19:22.718Z,11.56
2023-02-28T16:21:49.998Z,11.37
2023-02-28T16:24:17.098Z,11.10
2023-02-28T16:26:49.129Z,10.93
2023-02-28T16:29:31.293Z,10.78
2023-02-28T16:31:59.070Z,10.54
2023-02-28T16:34:26.264Z,10.26
2023-02-28T16:36:53.938Z,10.06
2023-02-28T16:39:21.633Z,9.77
2023-02-28T16:41:49.777Z,9.59
2023-02-28T16:44:31.570Z,9.03
2023-02-28T16:47:01.114Z,8.88
2023-02-28T16:49:28.386Z,8.76
2023-02-28T16:51:55.665Z,8.68
2023-02-28T16:54:22.849Z,8.67
2023-02-28T16:56:50.308Z,8.51
2023-02-28T16:59:22.778Z,8.39
2023-02-28T17:01:50.803Z,8.24
2023-02-28T17:04:18.761Z,8.14
2023-02-28T17:06:45.983Z,8.01
2023-02-28T17:09:28.294Z,7.90
2023-02-28T17:11:57.912Z,7.89
2023-02-28T17:14:25.107Z,7.88
2023-02-28T17:16:52.212Z,7.75
2023-02-28T17:19:19.344Z,7.66
2023-02-28T17:21:46.660Z,7.52
2023-02-28T17:24:16.598Z,7.45
2023-02-28T17:26:46.194Z,7.31
2023-02-28T17:29:18.170Z,7.25
2023-02-28T17:31:45.339Z,7.18
2023-02-28T17:34:18.873Z,7.09
2023-02-28T17:36:47.314Z,7.01
2023-02-28T17:39:15.930Z,6.93
2023-02-28T17:41:43.265Z,6.87
2023-02-28T17:44:10.446Z,6.76
2023-02-28T17:46:37.768Z,6.68
2023-02-28T17:49:05.084Z,6.60
2023-02-28T17:51:32.274Z,6.52
2023-02-28T17:54:00.636Z,6.46
2023-02-28T17:56:28.720Z,6.41
2023-02-28T17:58:57.107Z,6.35
2023-02-28T18:01:26.783Z,6.30
2023-02-28T18:03:54.884Z,6.25
2023-02-28T18:06:23.300Z,6.15
2023-02-28T18:08:52.404Z,6.00
2023-02-28T18:11:21.404Z,5.95
2023-02-28T18:13:50.640Z,5.89
2023-02-28T18:16:18.796Z,5.84
2023-02-28T18:18:46.095Z,5.73
2023-02-28T18:21:15.051Z,5.67
2023-02-28T18:23:48.041Z,5.56
2023-02-28T18:26:16.292Z,5.52
2023-02-28T18:28:44.557Z,5.47
2023-02-28T18:31:15.430Z,5.44
2023-02-28T18:33:43.690Z,5.42
2023-02-28T18:36:11.268Z,5.34
2023-02-28T18:38:39.526Z,5.30
2023-02-28T18:41:07.798Z,5.28
2023-02-28T18:43:38.273Z,5.23
2023-02-28T18:46:06.724Z,5.18
2023-02-28T18:48:37.022Z,5.08
2023-02-28T18:51:11.895Z,4.94
2023-02-28T18:53:40.630Z,4.89
2023-02-28T18:56:08.517Z,4.72
2023-02-28T18:58:35.688Z,4.68
2023-02-28T19:01:04.687Z,4.68
2023-02-28T19:03:32.030Z,4.68
2023-02-28T19:06:00.102Z,4.66
2023-02-28T19:08:28.409Z,4.64
2023-02-28T19:10:58.357Z,4.60
2023-02-28T19:13:25.609Z,4.57
2023-02-28T19:16:02.162Z,4.53
2023-02-28T19:18:50.602Z,4.48
2023-02-28T19:21:20.713Z,4.42
2023-02-28T19:23:49.492Z,4.33
2023-02-28T19:26:22.816Z,4.32
2023-02-28T19:28:50.844Z,4.29
2023-02-28T19:31:24.254Z,4.28
2023-02-28T19:34:12.417Z,4.24
2023-02-28T19:36:40.551Z,4.20
2023-02-28T19:39:08.473Z,4.14
2023-02-28T19:41:35.646Z,4.05
2023-02-28T19:44:02.852Z,4.01
2023-02-28T19:46:30.052Z,3.98
2023-02-28T19:48:57.280Z,3.93
2023-02-28T19:51:36.711Z,3.87
2023-02-28T19:54:05.013Z,3.83
2023-02-28T19:56:36.386Z,3.77
2023-02-28T19:59:21.834Z,3.70
2023-02-28T20:02:21.685Z,3.64
2023-02-28T20:04:50.871Z,3.60
2023-02-28T20:07:22.139Z,3.56
2023-02-28T20:09:49.433Z,3.52
2023-02-28T20:12:25.823Z,3.50
2023-02-28T20:14:56.423Z,3.48
2023-02-28T20:17:30.477Z,3.46
2023-02-28T20:19:58.626Z,3.46
2023-02-28T20:22:26.859Z,3.42
2023-02-28T20:24:54.039Z,3.41
2023-02-28T20:27:21.295Z,3.38
2023-02-28T20:29:50.025Z,3.32
2023-02-28T20:32:18.584Z,3.29
2023-02-28T20:34:48.860Z,3.25
2023-02-28T20:37:16.077Z,3.24
2023-02-28T20:39:43.315Z,3.18
2023-02-28T20:42:10.902Z,3.13
2023-02-28T20:44:39.052Z,3.11
2023-02-28T20:47:06.245Z,3.03
2023-02-28T20:49:36.369Z,2.98
2023-02-28T20:52:03.594Z,2.94
2023-02-28T20:54:31.051Z,2.87
2023-02-28T20:56:58.682Z,2.83
2023-02-28T20:59:27.097Z,2.81
2023-02-28T21:01:56.204Z,2.78
2023-02-28T21:04:24.390Z,2.74
2023-02-28T21:06:51.897Z,2.71
2023-02-28T21:09:20.128Z,2.67
2023-02-28T21:11:47.407Z,2.61
2023-02-28T21:14:19.760Z,2.55
2023-02-28T21:16:48.001Z,2.53
2023-02-28T21:19:16.869Z,2.49
2023-02-28T21:21:46.660Z,2.36
2023-02-28T21:24:18.002Z,2.32
2023-02-28T21:26:45.902Z,2.32
2023-02-28T21:29:14.800Z,2.29
2023-02-28T21:31:42.100Z,2.28
2023-02-28T21:34:12.651Z,2.23
2023-02-28T21:36:45.358Z,2.08
2023-02-28T21:39:19.073Z,2.03
2023-02-28T21:41:48.076Z,2.02
2023-02-28T21:44:18.926Z,2.02
2023-02-28T21:46:49.019Z,1.94
2023-02-28T21:49:16.625Z,1.93
2023-02-28T21:51:45.782Z,1.91
2023-02-28T21:54:15.909Z,1.90
2023-02-28T21:56:43.262Z,1.86
2023-02-28T21:59:10.537Z,1.84
2023-02-28T22:01:43.958Z,1.81
2023-02-28T22:04:20.855Z,1.80
2023-02-28T22:06:50.752Z,1.78
2023-02-28T22:09:18.144Z,1.77
2023-02-28T22:11:45.336Z,1.75
2023-02-28T22:14:12.903Z,1.72
2023-02-28T22:16:51.327Z,1.70
2023-02-28T22:19:20.439Z,1.63
2023-02-28T22:21:47.848Z,1.61
2023-02-28T22:24:17.429Z,1.59
2023-02-28T22:26:44.872Z,1.56
2023-02-28T22:29:12.045Z,1.53
2023-02-28T22:31:40.246Z,1.46
2023-02-28T22:34:08.977Z,1.40
2023-02-28T22:36:36.941Z,1.37
2023-02-28T22:39:05.305Z,1.35
2023-02-28T22:41:33.464Z,1.36
2023-02-28T22:44:03.555Z,1.35
2023-02-28T22:46:33.324Z,1.34
2023-02-28T22:49:04.812Z,1.32
2023-02-28T22:51:32.087Z,1.29
2023-02-28T22:53:59.410Z,1.27
2023-02-28T22:56:28.880Z,1.26
2023-02-28T22:58:57.481Z,1.23
2023-02-28T23:01:27.913Z,1.21
2023-02-28T23:03:55.628Z,1.18
2023-02-28T23:06:26.998Z,1.15
2023-02-28T23:08:58.118Z,1.14
2023-02-28T23:11:31.662Z,1.13
2023-02-28T23:13:59.549Z,1.11
2023-02-28T23:16:36.088Z,1.09
2023-02-28T23:19:06.531Z,1.06
2023-02-28T23:21:34.272Z,1.04
2023-02-28T23:24:02.805Z,1.03
2023-02-28T23:26:31.598Z,0.98
2023-02-28T23:28:59.345Z,0.96
2023-02-28T23:31:26.632Z,0.95
2023-02-28T23:33:53.818Z,0.96
2023-02-28T23:36:20.982Z,0.94
2023-02-28T23:38:49.865Z,0.93
2023-02-28T23:41:17.962Z,0.93
2023-02-28T23:43:45.627Z,0.93
2023-02-28T23:46:13.918Z,0.90
2023-02-28T23:48:41.600Z,0.88
2023-02-28T23:51:14.647Z,0.86
2023-02-28T23:53:44.256Z,0.85
2023-02-28T23:56:14.632Z,0.82
2023-02-28T23:58:42.778Z,0.82
